createdAt,value
2024-01-15T00:00:58.914Z,0.97
2024-01-15T00:04:05.984Z,0.98
2024-01-15T00:07:14.577Z,1.01
2024-01-15T00:10:21.773Z,0.99
2024-01-15T00:13:28.577Z,0.97
2024-01-15T00:16:35.342Z,0.96
2024-01-15T00:19:42.314Z,0.91
2024-01-15T00:22:51.712Z,0.91
2024-01-15T00:25:57.675Z,0.89
2024-01-15T00:29:04.451Z,0.88
2024-01-15T00:32:10.655Z,0.85
2024-01-15T00:35:18.486Z,0.80
2024-01-15T00:38:27.471Z,0.85
2024-01-15T00:41:36.776Z,0.86
2024-01-15T00:44:42.447Z,0.87
2024-01-15T00:47:49.278Z,0.86
2024-01-15T00:50:55.852Z,0.88
2024-01-15T00:54:05.256Z,0.89
2024-01-15T00:57:11.154Z,0.89
2024-01-15T01:00:18.980Z,0.90
2024-01-15T01:03:25.525Z,0.88
2024-01-15T01:06:34.287Z,0.87
2024-01-15T01:09:43.142Z,0.87
2024-01-15T01:12:49.684Z,0.85
2024-01-15T01:15:55.343Z,0.84
2024-01-15T01:19:02.145Z,0.81
2024-01-15T01:22:08.388Z,0.77
2024-01-15T01:25:17.722Z,0.77
2024-01-15T01:28:23.346Z,0.80
2024-01-15T01:31:29.929Z,0.84
2024-01-15T01:34:45.361Z,0.86
2024-01-15T01:37:52.040Z,0.91
2024-01-15T01:41:00.403Z,0.89
2024-01-15T01:44:08.745Z,0.92
2024-01-15T01:47:14.838Z,0.91
2024-01-15T01:50:22.521Z,0.90
2024-01-15T01:53:30.515Z,0.88
2024-01-15T01:56:40.467Z,0.84
2024-01-15T01:59:46.425Z,0.87
2024-01-15T02:02:53.612Z,0.87
2024-01-15T02:06:00.643Z,0.86
2024-01-15T02:09:08.621Z,0.83
2024-01-15T02:12:17.246Z,0.84
2024-01-15T02:15:23.831Z,0.81
2024-01-15T02:18:30.404Z,0.83
2024-01-15T02:21:36.826Z,0.75
2024-01-15T02:24:46.534Z,0.74
2024-01-15T02:27:52.660Z,0.73
2024-01-15T02:30:59.404Z,0.75
2024-01-15T02:34:05.674Z,0.73
2024-01-15T02:37:12.170Z,0.68
2024-01-15T02:40:20.473Z,0.66
2024-01-15T02:43:26.991Z,0.61
2024-01-15T02:46:32.694Z,0.60
2024-01-15T02:49:39.288Z,0.50
2024-01-15T02:52:46.665Z,0.53
2024-01-15T02:55:55.912Z,0.54
2024-01-15T02:59:01.716Z,0.49
2024-01-15T03:02:08.561Z,0.48
2024-01-15T03:05:14.676Z,0.55
2024-01-15T03:08:21.249Z,0.56
2024-01-15T03:11:29.780Z,0.55
2024-01-15T03:14:36.317Z,0.57
2024-01-15T03:17:42.030Z,0.54
2024-01-15T03:20:48.587Z,0.52
2024-01-15T03:23:54.320Z,0.35
2024-01-15T03:27:03.446Z,0.49
2024-01-15T03:30:12.697Z,0.50
2024-01-15T03:33:19.526Z,0.48
2024-01-15T03:36:25.384Z,0.46
2024-01-15T03:39:32.112Z,0.47
2024-01-15T03:42:40.564Z,0.50
2024-01-15T03:45:47.215Z,0.52
2024-01-15T03:48:53.172Z,0.54
2024-01-15T03:51:59.659Z,0.50
2024-01-15T03:55:05.393Z,0.48
2024-01-15T03:58:16.208Z,0.47
2024-01-15T04:01:21.898Z,0.47
2024-01-15T04:04:28.531Z,0.51
2024-01-15T04:07:34.341Z,0.52
2024-01-15T04:10:40.935Z,0.48
2024-01-15T04:13:49.519Z,0.53
2024-01-15T04:16:55.999Z,0.50
2024-01-15T04:20:02.070Z,0.50
2024-01-15T04:23:08.849Z,0.49
2024-01-15T04:26:14.584Z,0.49
2024-01-15T04:29:23.607Z,0.44
2024-01-15T04:32:29.383Z,0.43
2024-01-15T04:35:36.006Z,0.38
2024-01-15T04:38:41.679Z,0.37
2024-01-15T04:41:48.282Z,0.36
2024-01-15T04:44:56.818Z,0.32
2024-01-15T04:48:03.474Z,0.33
2024-01-15T04:51:12.955Z,0.34
2024-01-15T04:54:19.932Z,0.34
2024-01-15T04:57:25.703Z,0.34
2024-01-15T05:00:35.109Z,0.31
2024-01-15T05:03:40.933Z,0.30
2024-01-15T05:06:47.739Z,0.29
2024-01-15T05:09:53.716Z,0.29
2024-01-15T05:13:00.287Z,0.29
2024-01-15T05:16:09.454Z,0.29
2024-01-15T05:19:16.136Z,0.34
2024-01-15T05:22:22.521Z,0.33
2024-01-15T05:25:29.047Z,0.32
2024-01-15T05:28:34.842Z,0.32
2024-01-15T05:31:44.092Z,0.30
2024-01-15T05:34:50.009Z,0.32
2024-01-15T05:37:56.538Z,0.27
2024-01-15T05:41:02.191Z,0.26
2024-01-15T05:44:08.824Z,0.25
2024-01-15T05:47:17.300Z,0.20
2024-01-15T05:50:23.814Z,0.19
2024-01-15T05:53:29.696Z,0.18
2024-01-15T05:56:36.159Z,0.18
2024-01-15T05:59:41.898Z,0.17
2024-01-15T06:02:51.187Z,0.20
2024-01-15T06:05:56.989Z,0.23
2024-01-15T06:09:06.819Z,0.23
2024-01-15T06:12:13.831Z,0.14
2024-01-15T06:15:20.542Z,0.21
2024-01-15T06:18:29.168Z,0.22
2024-01-15T06:21:35.734Z,0.19
2024-01-15T06:24:41.545Z,0.23
2024-01-15T06:27:48.028Z,0.23
2024-01-15T06:30:54.371Z,0.26
2024-01-15T06:34:03.605Z,0.28
2024-01-15T06:37:10.104Z,0.29
2024-01-15T06:40:16.635Z,0.27
2024-01-15T06:43:22.740Z,0.25
2024-01-15T06:46:29.217Z,0.25
2024-01-15T06:49:37.596Z,0.28
2024-01-15T06:52:44.073Z,0.32
2024-01-15T06:55:50.722Z,0.32
2024-01-15T06:58:57.224Z,0.30
2024-01-15T07:02:03.612Z,0.21
2024-01-15T07:05:13.059Z,0.20
2024-01-15T07:08:18.839Z,0.22
2024-01-15T07:11:25.284Z,0.18
2024-01-15T07:14:31.063Z,0.14
2024-01-15T07:17:40.785Z,0.11
2024-01-15T07:20:49.387Z,0.12
2024-01-15T07:23:55.785Z,0.15
2024-01-15T07:27:01.556Z,0.11
2024-01-15T07:30:10.567Z,0.10
2024-01-15T07:33:16.651Z,0.10
2024-01-15T07:36:26.022Z,0.07
2024-01-15T07:39:32.202Z,0.12
2024-01-15T07:42:39.578Z,0.13
2024-01-15T07:45:46.839Z,0.12
2024-01-15T07:48:57.795Z,0.10
2024-01-15T07:52:06.668Z,0.07
2024-01-15T07:55:13.292Z,0.09
2024-01-15T07:58:19.142Z,0.12
2024-01-15T08:01:25.808Z,0.17
2024-01-15T08:04:31.868Z,0.16
2024-01-15T08:07:41.054Z,0.19
2024-01-15T08:10:47.315Z,0.17
2024-01-15T08:13:53.818Z,0.19
2024-01-15T08:16:59.630Z,0.22
2024-01-15T08:20:06.945Z,0.24
2024-01-15T08:23:15.531Z,0.18
2024-01-15T08:26:22.824Z,0.29
2024-01-15T08:29:29.008Z,0.35
2024-01-15T08:32:37.470Z,0.37
2024-01-15T08:35:43.251Z,0.27
2024-01-15T08:38:52.394Z,0.19
2024-01-15T08:41:58.047Z,0.18
2024-01-15T08:45:04.573Z,0.19
2024-01-15T08:48:10.847Z,0.32
2024-01-15T08:51:17.333Z,0.42
2024-01-15T08:54:25.685Z,0.48
2024-01-15T08:57:32.217Z,0.52
2024-01-15T09:00:38.114Z,0.55
2024-01-15T09:03:45.811Z,0.61
2024-01-15T09:06:51.845Z,0.67
2024-01-15T09:10:01.084Z,0.73
2024-01-15T09:13:07.468Z,0.75
2024-01-15T09:16:14.113Z,0.81
2024-01-15T09:19:20.029Z,0.88
2024-01-15T09:22:26.630Z,1.02
2024-01-15T09:25:34.973Z,1.08
2024-01-15T09:28:41.374Z,1.23
2024-01-15T09:31:47.170Z,1.39
2024-01-15T09:34:55.369Z,1.51
2024-01-15T09:38:01.875Z,1.55
2024-01-15T09:41:11.407Z,1.59
2024-01-15T09:44:18.205Z,1.59
2024-01-15T09:47:26.392Z,1.61
2024-01-15T09:50:32.391Z,1.57
2024-01-15T09:53:41.526Z,1.54
2024-01-15T09:56:50.794Z,1.53
2024-01-15T10:00:01.600Z,1.54
2024-01-15T10:03:12.573Z,1.59
2024-01-15T10:06:22.884Z,1.65
2024-01-15T10:09:29.010Z,1.78
2024-01-15T10:12:43.501Z,1.94
2024-01-15T10:15:51.055Z,2.09
2024-01-15T10:18:57.675Z,2.25
2024-01-15T10:22:04.582Z,2.26
2024-01-15T10:25:15.314Z,2.33
2024-01-15T10:28:24.238Z,2.48
2024-01-15T10:31:31.751Z,2.57
2024-01-15T10:34:37.989Z,2.58
2024-01-15T10:37:46.184Z,2.62
2024-01-15T10:40:52.325Z,2.58
2024-01-15T10:44:01.583Z,2.55
2024-01-15T10:47:09.417Z,2.55
2024-01-15T10:50:16.624Z,2.52
2024-01-15T10:53:22.839Z,2.53
2024-01-15T10:56:34.213Z,2.64
2024-01-15T10:59:42.901Z,2.70
2024-01-15T11:02:51.216Z,2.73
2024-01-15T11:05:58.583Z,2.78
2024-01-15T11:09:05.787Z,2.68
2024-01-15T11:12:17.466Z,2.53
2024-01-15T11:15:30.620Z,2.33
2024-01-15T11:18:42.423Z,2.29
2024-01-15T11:21:49.196Z,2.11
2024-01-15T11:24:55.078Z,2.00
2024-01-15T11:28:01.969Z,1.95
2024-01-15T11:31:10.598Z,1.92
2024-01-15T11:34:17.454Z,1.87
2024-01-15T11:37:24.994Z,1.84
2024-01-15T11:40:44.305Z,1.80
2024-01-15T11:43:50.082Z,1.71
2024-01-15T11:47:04.251Z,1.65
2024-01-15T11:50:13.065Z,1.65
2024-01-15T11:53:36.828Z,1.65
2024-01-15T11:56:43.319Z,1.58
2024-01-15T11:59:51.830Z,1.53
2024-01-15T12:03:03.589Z,1.52
2024-01-15T12:06:11.744Z,1.49
2024-01-15T12:09:17.580Z,1.43
2024-01-15T12:12:39.964Z,1.38
2024-01-15T12:15:47.223Z,1.35
2024-01-15T12:18:56.619Z,1.40
2024-01-15T12:22:02.364Z,1.35
2024-01-15T12:25:09.626Z,1.28
2024-01-15T12:28:15.833Z,1.22
2024-01-15T12:31:23.727Z,1.30
2024-01-15T12:34:33.946Z,1.34
2024-01-15T12:37:41.010Z,1.34
2024-01-15T12:40:50.408Z,1.38
2024-01-15T12:43:57.255Z,1.33
2024-01-15T12:47:03.185Z,1.37
2024-01-15T12:50:19.764Z,1.39
2024-01-15T12:53:26.939Z,1.40
2024-01-15T12:56:33.439Z,1.38
2024-01-15T12:59:39.238Z,1.29
2024-01-15T13:02:46.850Z,1.29
2024-01-15T13:05:55.299Z,1.29
2024-01-15T13:09:02.385Z,1.32
2024-01-15T13:12:09.726Z,1.35
2024-01-15T13:15:16.271Z,1.32
2024-01-15T13:18:22.201Z,1.18
2024-01-15T13:21:31.419Z,1.22
2024-01-15T13:24:37.483Z,1.22
2024-01-15T13:27:44.088Z,1.18
2024-01-15T13:30:49.884Z,1.03
2024-01-15T13:33:57.314Z,1.10
2024-01-15T13:37:06.120Z,1.13
2024-01-15T13:40:18.357Z,1.13
2024-01-15T13:43:28.409Z,1.14
2024-01-15T13:46:35.250Z,1.20
2024-01-15T13:49:41.018Z,1.20
2024-01-15T13:52:50.817Z,1.18
2024-01-15T13:55:56.823Z,1.14
2024-01-15T13:59:05.469Z,1.10
2024-01-15T14:02:11.571Z,1.06
2024-01-15T14:05:18.385Z,1.03
2024-01-15T14:08:26.708Z,1.00
2024-01-15T14:11:33.304Z,0.99
2024-01-15T14:14:39.097Z,1.07
2024-01-15T14:17:46.067Z,1.07
2024-01-15T14:20:52.050Z,1.03
2024-01-15T14:24:01.680Z,1.01
2024-01-15T14:27:09.031Z,1.01
2024-01-15T14:30:17.998Z,1.00
2024-01-15T14:33:24.103Z,1.00
2024-01-15T14:36:30.981Z,1.00
2024-01-15T14:39:39.405Z,0.96
2024-01-15T14:42:46.456Z,0.91
2024-01-15T14:45:52.330Z,0.85
2024-01-15T14:48:58.948Z,0.90
2024-01-15T14:52:04.918Z,0.90
2024-01-15T14:55:14.386Z,0.89
2024-01-15T14:58:20.328Z,0.89
2024-01-15T15:01:27.249Z,0.87
2024-01-15T15:04:33.302Z,0.87
2024-01-15T15:07:40.200Z,0.85
2024-01-15T15:10:49.834Z,0.89
2024-01-15T15:13:56.304Z,0.87
2024-01-15T15:17:02.143Z,0.87
2024-01-15T15:20:11.411Z,0.87
2024-01-15T15:23:18.274Z,0.86
2024-01-15T15:26:27.558Z,0.81
2024-01-15T15:29:33.274Z,0.76
2024-01-15T15:32:39.868Z,0.74
2024-01-15T15:35:45.569Z,0.70
2024-01-15T15:38:53.088Z,0.75
2024-01-15T15:42:02.469Z,0.65
2024-01-15T15:45:10.976Z,0.66
2024-01-15T15:48:16.856Z,0.66
2024-01-15T15:51:23.948Z,0.65
2024-01-15T15:54:29.652Z,0.66
2024-01-15T15:57:38.785Z,0.67
2024-01-15T16:00:45.095Z,0.68
2024-01-15T16:03:51.612Z,0.64
2024-01-15T16:06:58.210Z,0.62
2024-01-15T16:10:04.996Z,0.64
2024-01-15T16:13:15.626Z,0.59
2024-01-15T16:23:10.774Z,0.54
2024-01-15T16:23:27.518Z,0.55
2024-01-15T16:24:02.724Z,0.58
2024-01-15T16:26:48.520Z,0.63
2024-01-15T16:29:57.915Z,0.67
2024-01-15T16:33:03.855Z,0.65
2024-01-15T16:36:10.830Z,0.64
2024-01-15T16:39:16.629Z,0.67
2024-01-15T16:42:29.312Z,0.67
2024-01-15T16:45:37.802Z,0.65
2024-01-15T16:48:44.498Z,0.62
2024-01-15T16:51:50.291Z,0.58
2024-01-15T16:54:56.817Z,0.59
2024-01-15T16:58:02.653Z,0.59
2024-01-15T17:01:12.553Z,0.51
2024-01-15T17:04:18.427Z,0.58
2024-01-15T17:07:25.066Z,0.57
2024-01-15T17:10:32.558Z,0.56
2024-01-15T17:13:39.239Z,0.52
2024-01-15T17:16:47.924Z,0.52
2024-01-15T17:19:55.384Z,0.59
2024-01-15T17:23:01.155Z,0.58
2024-01-15T17:26:08.337Z,0.59
2024-01-15T17:29:14.178Z,0.60
2024-01-15T17:32:23.476Z,0.59
2024-01-15T17:35:29.793Z,0.56
2024-01-15T17:38:37.272Z,0.45
2024-01-15T17:41:43.242Z,0.35
2024-01-15T17:44:50.117Z,0.26
2024-01-15T17:47:58.573Z,0.21
2024-01-15T17:51:05.355Z,0.17
2024-01-15T17:54:11.322Z,0.16
2024-01-15T17:57:20.830Z,0.17
2024-01-15T18:00:27.439Z,0.12
2024-01-15T18:03:37.727Z,0.19
2024-01-15T18:06:43.809Z,0.21
2024-01-15T18:09:50.283Z,0.24
2024-01-15T18:12:55.982Z,0.30
2024-01-15T18:16:02.899Z,0.34
2024-01-15T18:19:12.037Z,0.36
2024-01-15T18:22:19.775Z,0.36
2024-01-15T18:25:25.470Z,0.37
2024-01-15T18:28:32.029Z,0.43
2024-01-15T18:31:37.778Z,0.48
2024-01-15T18:34:47.397Z,0.50
2024-01-15T18:37:53.691Z,0.52
2024-01-15T18:41:03.332Z,0.53
2024-01-15T18:44:09.322Z,0.49
2024-01-15T18:47:15.929Z,0.46
2024-01-15T18:50:24.389Z,0.42
2024-01-15T18:53:31.055Z,0.37
2024-01-15T18:56:39.674Z,0.42
2024-01-15T18:59:48.580Z,0.43
2024-01-15T19:02:58.915Z,0.40
2024-01-15T19:06:08.826Z,0.45
2024-01-15T19:09:14.833Z,0.48
2024-01-15T19:12:21.712Z,0.51
2024-01-15T19:15:27.525Z,0.48
2024-01-15T19:18:35.292Z,0.43
2024-01-15T19:21:44.576Z,0.47
2024-01-15T19:24:51.877Z,0.46
2024-01-15T19:27:58.403Z,0.38
2024-01-15T19:31:05.666Z,0.34
2024-01-15T19:34:11.479Z,0.35
2024-01-15T19:37:20.462Z,0.35
2024-01-15T19:40:29.777Z,0.32
2024-01-15T19:43:37.395Z,0.33
2024-01-15T19:46:44.010Z,0.36
2024-01-15T19:49:50.838Z,0.33
2024-01-15T19:52:59.225Z,0.33
2024-01-15T19:56:05.756Z,0.32
2024-01-15T19:59:11.753Z,0.29
2024-01-15T20:02:18.783Z,0.30
2024-01-15T20:05:25.331Z,0.34
2024-01-15T20:08:34.803Z,0.24
2024-01-15T20:11:41.998Z,0.22
2024-01-15T20:14:51.917Z,0.15
2024-01-15T20:17:58.824Z,0.07
2024-01-15T20:21:06.374Z,0.06
2024-01-15T20:24:22.933Z,0.06
2024-01-15T20:27:32.794Z,0.06
2024-01-15T20:30:42.096Z,0.02
2024-01-15T20:33:48.768Z,0.03
2024-01-15T20:36:54.639Z,0.04
2024-01-15T20:40:04.672Z,0.04
2024-01-15T20:43:11.428Z,0.06
2024-01-15T20:46:18.595Z,0.06
2024-01-15T20:49:24.724Z,0.10
2024-01-15T20:52:36.562Z,0.17
2024-01-15T20:55:45.372Z,0.19
2024-01-15T20:58:52.399Z,0.20
2024-01-15T21:01:58.328Z,0.19
2024-01-15T21:05:04.890Z,0.22
2024-01-15T21:08:10.700Z,0.25
2024-01-15T21:11:19.894Z,0.28
2024-01-15T21:14:25.719Z,0.27
2024-01-15T21:17:33.482Z,0.32
2024-01-15T21:20:39.507Z,0.37
2024-01-15T21:23:46.126Z,0.36
2024-01-15T21:26:54.512Z,0.32
2024-01-15T21:30:01.087Z,0.30
2024-01-15T21:33:09.437Z,0.29
2024-01-15T21:36:16.560Z,0.31
2024-01-15T21:39:22.325Z,0.32
2024-01-15T21:42:31.492Z,0.30
2024-01-15T21:45:39.501Z,0.22
2024-01-15T21:48:46.119Z,0.30
2024-01-15T21:51:51.839Z,0.25
2024-01-15T21:54:58.453Z,0.23
2024-01-15T21:58:07.591Z,0.24
2024-01-15T22:01:14.120Z,0.25
2024-01-15T22:04:19.905Z,0.24
2024-01-15T22:07:26.437Z,0.21
2024-01-15T22:10:32.093Z,0.22
2024-01-15T22:13:42.045Z,0.17
2024-01-15T22:16:47.908Z,0.13
2024-01-15T22:19:54.449Z,0.07
2024-01-15T22:23:00.178Z,0.11
2024-01-15T22:26:08.658Z,0.12
2024-01-15T22:29:17.097Z,0.07
2024-01-15T22:32:23.958Z,0.05
2024-01-15T22:35:30.053Z,0.06
2024-01-15T22:38:36.850Z,0.05
2024-01-15T22:41:42.815Z,0.05
2024-01-15T22:44:52.329Z,0.10
2024-01-15T22:47:58.368Z,0.09
2024-01-15T22:51:04.944Z,0.10
2024-01-15T22:54:10.696Z,0.08
2024-01-15T22:57:17.331Z,0.05
2024-01-15T23:00:25.695Z,0.03
2024-01-15T23:03:32.580Z,0.02
2024-01-15T23:06:38.568Z,0.02
2024-01-15T23:09:45.581Z,0.01
2024-01-15T23:12:51.266Z,-0.01
2024-01-15T23:16:00.645Z,-0.05
2024-01-15T23:19:06.927Z,-0.06
2024-01-15T23:22:13.947Z,-0.07
2024-01-15T23:25:20.238Z,-0.08
2024-01-15T23:28:26.816Z,-0.05
2024-01-15T23:31:35.291Z,-0.04
2024-01-15T23:34:42.140Z,-0.02
2024-01-15T23:37:48.312Z,-0.01
2024-01-15T23:40:54.791Z,-0.04
2024-01-15T23:44:00.643Z,-0.02
2024-01-15T23:47:09.934Z,-0.00
2024-01-15T23:50:15.904Z,0.05
2024-01-15T23:53:22.740Z,0.02
2024-01-15T23:56:28.539Z,0.00
2024-01-15T23:59:37.091Z,-0.07
